createdAt,value
2024-01-15T00:00:04.828Z,97.40
2024-01-15T00:03:12.973Z,98.61
2024-01-15T00:06:15.721Z,98.61
2024-01-15T00:09:18.270Z,97.34
2024-01-15T00:12:20.631Z,97.91
2024-01-15T00:15:23.585Z,96.85
2024-01-15T00:18:26.028Z,95.77
2024-01-15T00:21:29.231Z,95.98
2024-01-15T00:24:31.606Z,96.56
2024-01-15T00:27:34.122Z,96.51
2024-01-15T00:30:39.342Z,96.24
2024-01-15T00:33:41.803Z,96.22
2024-01-15T00:36:44.516Z,97.33
2024-01-15T00:39:47.129Z,97.34
2024-01-15T00:42:50.086Z,97.48
2024-01-15T00:45:52.565Z,97.74
2024-01-15T00:48:55.002Z,97.30
2024-01-15T00:51:57.411Z,98.85
2024-01-15T00:54:59.884Z,99.28
2024-01-15T00:58:02.197Z,98.20
2024-01-15T01:01:04.700Z,99.04
2024-01-15T01:04:07.092Z,98.98
2024-01-15T01:07:09.544Z,99.75
2024-01-15T01:10:11.916Z,99.86
2024-01-15T01:13:14.272Z,99.84
2024-01-15T01:16:16.574Z,100.00
2024-01-15T01:19:19.076Z,98.63
2024-01-15T01:22:21.600Z,98.72
2024-01-15T01:25:23.967Z,98.95
2024-01-15T01:28:26.519Z,97.36
2024-01-15T01:31:29.261Z,97.83
2024-01-15T01:34:35.000Z,98.44
2024-01-15T01:37:38.836Z,98.19
2024-01-15T01:40:41.252Z,98.23
2024-01-15T01:43:44.680Z,99.47
2024-01-15T01:46:47.139Z,98.92
2024-01-15T01:49:49.698Z,98.89
2024-01-15T01:52:52.138Z,98.31
2024-01-15T01:55:57.246Z,98.24
2024-01-15T01:58:59.810Z,98.18
2024-01-15T02:02:05.405Z,98.16
2024-01-15T02:05:08.887Z,99.70
2024-01-15T02:08:11.356Z,99.10
2024-01-15T02:11:13.695Z,100.00
2024-01-15T02:14:16.223Z,100.00
2024-01-15T02:17:18.992Z,100.00
2024-01-15T02:20:21.341Z,100.00
2024-01-15T02:23:23.707Z,100.00
2024-01-15T02:26:26.230Z,100.00
2024-01-15T02:29:28.630Z,100.00
2024-01-15T02:32:31.048Z,100.00
2024-01-15T02:35:34.280Z,100.00
2024-01-15T02:38:39.567Z,100.00
2024-01-15T02:41:41.861Z,100.00
2024-01-15T02:44:44.187Z,100.00
2024-01-15T02:47:49.641Z,100.00
2024-01-15T02:50:54.111Z,100.00
2024-01-15T02:53:56.460Z,100.00
2024-01-15T02:56:58.752Z,100.00
2024-01-15T03:00:01.620Z,100.00
2024-01-15T03:03:06.723Z,100.00
2024-01-15T03:06:09.098Z,100.00
2024-01-15T03:09:11.428Z,100.00
2024-01-15T03:12:13.760Z,100.00
2024-01-15T03:15:16.273Z,100.00
2024-01-15T03:18:19.012Z,100.00
2024-01-15T03:21:28.636Z,100.00
2024-01-15T03:24:33.082Z,100.00
2024-01-15T03:27:35.705Z,100.00
2024-01-15T03:30:38.394Z,100.00
2024-01-15T03:33:43.106Z,100.00
2024-01-15T03:36:45.876Z,100.00
2024-01-15T03:39:48.966Z,100.00
2024-01-15T03:42:52.372Z,100.00
2024-01-15T03:45:55.005Z,100.00
2024-01-15T03:48:57.744Z,100.00
2024-01-15T03:52:00.094Z,100.00
2024-01-15T03:55:02.574Z,100.00
2024-01-15T03:58:04.935Z,100.00
2024-01-15T04:01:13.599Z,100.00
2024-01-15T04:04:17.933Z,100.00
2024-01-15T04:07:20.458Z,100.00
2024-01-15T04:10:22.848Z,100.00
2024-01-15T04:13:25.390Z,100.00
2024-01-15T04:16:27.679Z,100.00
2024-01-15T04:19:29.979Z,100.00
2024-01-15T04:22:32.334Z,100.00
2024-01-15T04:25:34.758Z,100.00
2024-01-15T04:28:37.086Z,100.00
2024-01-15T04:31:39.510Z,100.00
2024-01-15T04:34:42.176Z,100.00
2024-01-15T04:37:44.584Z,100.00
2024-01-15T04:40:46.916Z,100.00
2024-01-15T04:43:49.264Z,100.00
2024-01-15T04:46:51.552Z,100.00
2024-01-15T04:49:55.083Z,100.00
2024-01-15T04:52:57.488Z,100.00
2024-01-15T04:55:59.761Z,100.00
2024-01-15T04:59:02.547Z,100.00
2024-01-15T05:02:04.872Z,100.00
2024-01-15T05:05:07.654Z,100.00
2024-01-15T05:08:10.901Z,100.00
2024-01-15T05:11:13.195Z,100.00
2024-01-15T05:14:15.485Z,100.00
2024-01-15T05:17:17.803Z,100.00
2024-01-15T05:20:20.107Z,100.00
2024-01-15T05:23:22.520Z,100.00
2024-01-15T05:26:24.800Z,100.00
2024-01-15T05:29:28.020Z,100.00
2024-01-15T05:32:30.666Z,100.00
2024-01-15T05:35:33.023Z,100.00
2024-01-15T05:38:35.501Z,100.00
2024-01-15T05:41:37.846Z,100.00
2024-01-15T05:44:40.219Z,100.00
2024-01-15T05:47:42.667Z,100.00
2024-01-15T05:50:45.114Z,100.00
2024-01-15T05:53:49.705Z,100.00
2024-01-15T05:56:52.560Z,100.00
2024-01-15T05:59:55.461Z,100.00
2024-01-15T06:02:58.040Z,100.00
2024-01-15T06:06:00.567Z,100.00
2024-01-15T06:09:06.595Z,100.00
2024-01-15T06:12:09.696Z,100.00
2024-01-15T06:15:12.810Z,100.00
2024-01-15T06:18:15.352Z,100.00
2024-01-15T06:21:17.943Z,100.00
2024-01-15T06:24:21.508Z,100.00
2024-01-15T06:27:23.908Z,100.00
2024-01-15T06:30:26.429Z,100.00
2024-01-15T06:33:29.023Z,100.00
2024-01-15T06:36:31.444Z,100.00
2024-01-15T06:39:33.821Z,100.00
2024-01-15T06:42:36.203Z,100.00
2024-01-15T06:45:38.761Z,100.00
2024-01-15T06:48:41.149Z,100.00
2024-01-15T06:51:44.710Z,100.00
2024-01-15T06:54:57.332Z,100.00
2024-01-15T06:58:02.987Z,100.00
2024-01-15T07:01:06.081Z,100.00
2024-01-15T07:04:09.568Z,100.00
2024-01-15T07:07:11.906Z,100.00
2024-01-15T07:10:14.834Z,100.00
2024-01-15T07:13:17.165Z,100.00
2024-01-15T07:16:34.330Z,100.00
2024-01-15T07:19:40.258Z,100.00
2024-01-15T07:22:42.835Z,100.00
2024-01-15T07:25:45.257Z,100.00
2024-01-15T07:28:47.923Z,100.00
2024-01-15T07:32:00.388Z,100.00
2024-01-15T07:35:07.239Z,100.00
2024-01-15T07:38:10.751Z,100.00
2024-01-15T07:41:14.999Z,100.00
2024-01-15T07:44:22.612Z,100.00
2024-01-15T07:47:29.966Z,100.00
2024-01-15T07:50:32.376Z,100.00
2024-01-15T07:53:35.413Z,100.00
2024-01-15T07:56:58.549Z,100.00
2024-01-15T08:00:00.979Z,100.00
2024-01-15T08:03:09.345Z,97.73
2024-01-15T08:06:18.072Z,92.40
2024-01-15T08:09:24.439Z,87.52
2024-01-15T08:12:26.935Z,82.57
2024-01-15T08:15:31.518Z,79.21
2024-01-15T08:18:34.761Z,75.73
2024-01-15T08:21:38.382Z,73.71
2024-01-15T08:24:58.508Z,72.16
2024-01-15T08:28:00.978Z,70.59
2024-01-15T08:31:06.829Z,69.37
2024-01-15T08:34:09.606Z,69.46
2024-01-15T08:37:12.158Z,69.02
2024-01-15T08:40:14.637Z,68.12
2024-01-15T08:43:17.905Z,66.33
2024-01-15T08:46:20.302Z,66.68
2024-01-15T08:49:23.021Z,65.33
2024-01-15T08:52:25.520Z,65.89
2024-01-15T08:55:27.835Z,64.50
2024-01-15T08:58:31.348Z,63.63
2024-01-15T09:01:36.531Z,64.91
2024-01-15T09:04:39.023Z,62.62
2024-01-15T09:07:41.484Z,63.14
2024-01-15T09:10:43.877Z,62.94
2024-01-15T09:13:47.497Z,61.78
2024-01-15T09:16:49.991Z,61.17
2024-01-15T09:19:52.446Z,60.05
2024-01-15T09:22:54.892Z,60.76
2024-01-15T09:25:57.198Z,59.93
2024-01-15T09:28:59.542Z,60.41
2024-01-15T09:32:04.455Z,59.68
2024-01-15T09:35:07.566Z,59.03
2024-01-15T09:38:09.929Z,58.35
2024-01-15T09:41:12.309Z,58.39
2024-01-15T09:44:15.174Z,59.89
2024-01-15T09:47:18.438Z,59.07
2024-01-15T09:50:21.678Z,59.12
2024-01-15T09:53:25.183Z,57.43
2024-01-15T09:56:27.709Z,58.65
2024-01-15T09:59:31.225Z,57.96
2024-01-15T10:02:34.038Z,57.86
2024-01-15T10:05:36.387Z,57.77
2024-01-15T10:08:38.899Z,56.54
2024-01-15T10:11:47.107Z,57.04
2024-01-15T10:14:50.622Z,55.62
2024-01-15T10:17:53.220Z,55.77
2024-01-15T10:20:55.813Z,54.24
2024-01-15T10:23:58.200Z,54.00
2024-01-15T10:27:10.985Z,53.19
2024-01-15T10:30:18.185Z,51.94
2024-01-15T10:33:26.862Z,51.56
2024-01-15T10:36:30.441Z,51.92
2024-01-15T10:39:35.795Z,52.18
2024-01-15T10:42:38.270Z,54.34
2024-01-15T10:45:40.761Z,54.77
2024-01-15T10:48:43.853Z,55.60
2024-01-15T10:51:46.429Z,54.95
2024-01-15T10:54:50.242Z,54.81
2024-01-15T10:57:54.047Z,54.90
2024-01-15T11:00:57.439Z,53.84
2024-01-15T11:04:00.364Z,54.59
2024-01-15T11:07:04.311Z,55.32
2024-01-15T11:10:10.295Z,53.78
2024-01-15T11:13:15.858Z,53.53
2024-01-15T11:16:18.675Z,53.46
2024-01-15T11:19:21.094Z,53.78
2024-01-15T11:22:33.068Z,52.69
2024-01-15T11:25:39.369Z,53.32
2024-01-15T11:28:51.034Z,53.34
2024-01-15T11:31:56.421Z,53.64
2024-01-15T11:35:04.281Z,53.23
2024-01-15T11:38:08.305Z,52.80
2024-01-15T11:41:17.240Z,52.96
2024-01-15T11:44:20.309Z,53.01
2024-01-15T11:48:03.378Z,54.06
2024-01-15T11:51:06.014Z,56.22
2024-01-15T11:54:12.586Z,55.84
2024-01-15T11:57:33.257Z,56.23
2024-01-15T12:00:38.385Z,55.49
2024-01-15T12:03:41.193Z,55.66
2024-01-15T12:06:43.639Z,55.88
2024-01-15T12:09:46.159Z,55.78
2024-01-15T12:12:57.196Z,55.82
2024-01-15T12:16:03.629Z,56.23
2024-01-15T12:19:07.578Z,57.18
2024-01-15T12:22:12.300Z,56.61
2024-01-15T12:25:14.807Z,56.46
2024-01-15T12:28:17.189Z,57.23
2024-01-15T12:31:20.772Z,57.68
2024-01-15T12:34:23.401Z,57.75
2024-01-15T12:37:27.552Z,57.87
2024-01-15T12:40:30.249Z,58.43
2024-01-15T12:43:32.801Z,58.11
2024-01-15T12:46:35.823Z,59.45
2024-01-15T12:49:39.005Z,59.00
2024-01-15T12:52:47.069Z,58.52
2024-01-15T12:55:53.893Z,59.05
2024-01-15T12:58:56.411Z,58.08
2024-01-15T13:02:01.613Z,58.77
2024-01-15T13:05:05.952Z,58.97
2024-01-15T13:08:08.492Z,59.04
2024-01-15T13:11:11.533Z,59.30
2024-01-15T13:14:17.221Z,58.69
2024-01-15T13:17:20.539Z,58.57
2024-01-15T13:20:23.310Z,58.84
2024-01-15T13:23:25.781Z,59.19
2024-01-15T13:26:28.059Z,59.39
2024-01-15T13:29:30.506Z,59.97
2024-01-15T13:32:32.825Z,59.33
2024-01-15T13:35:40.103Z,59.42
2024-01-15T13:38:42.774Z,59.96
2024-01-15T13:41:45.717Z,60.46
2024-01-15T13:44:48.697Z,60.74
2024-01-15T13:47:53.958Z,60.81
2024-01-15T13:50:56.468Z,60.82
2024-01-15T13:53:59.217Z,61.14
2024-01-15T13:57:02.296Z,60.85
2024-01-15T14:00:13.877Z,60.94
2024-01-15T14:03:16.711Z,61.65
2024-01-15T14:06:19.144Z,61.20
2024-01-15T14:09:23.083Z,61.69
2024-01-15T14:12:28.445Z,61.51
2024-01-15T14:15:30.857Z,62.08
2024-01-15T14:18:34.991Z,61.79
2024-01-15T14:21:37.662Z,62.56
2024-01-15T14:24:40.294Z,63.26
2024-01-15T14:27:45.618Z,63.13
2024-01-15T14:30:48.069Z,63.69
2024-01-15T14:33:51.243Z,64.07
2024-01-15T14:36:56.675Z,64.57
2024-01-15T14:39:59.307Z,65.52
2024-01-15T14:43:01.876Z,65.68
2024-01-15T14:46:07.391Z,65.53
2024-01-15T14:49:09.982Z,65.64
2024-01-15T14:52:12.378Z,66.71
2024-01-15T14:55:15.087Z,67.70
2024-01-15T14:58:17.491Z,67.28
2024-01-15T15:01:20.075Z,67.63
2024-01-15T15:04:22.545Z,66.92
2024-01-15T15:07:25.265Z,67.57
2024-01-15T15:10:28.120Z,67.48
2024-01-15T15:13:38.189Z,66.50
2024-01-15T15:16:50.389Z,66.83
2024-01-15T15:19:54.940Z,67.33
2024-01-15T15:22:57.992Z,66.79
2024-01-15T15:26:00.416Z,66.84
2024-01-15T15:29:02.845Z,66.14
2024-01-15T15:32:08.415Z,66.82
2024-01-15T15:35:12.010Z,66.75
2024-01-15T15:38:14.999Z,66.21
2024-01-15T15:41:17.312Z,66.03
2024-01-15T15:44:19.663Z,65.35
2024-01-15T15:47:22.904Z,65.19
2024-01-15T15:50:25.468Z,65.98
2024-01-15T15:53:28.097Z,65.96
2024-01-15T15:56:33.818Z,65.64
2024-01-15T15:59:36.136Z,65.60
2024-01-15T16:02:38.493Z,65.72
2024-01-15T16:05:49.391Z,65.87
2024-01-15T16:08:55.292Z,66.54
2024-01-15T16:11:57.641Z,65.95
2024-01-15T16:15:02.374Z,66.57
2024-01-15T16:23:18.742Z,66.11
2024-01-15T16:23:36.529Z,66.29
2024-01-15T16:24:52.339Z,65.53
2024-01-15T16:27:56.290Z,65.73
2024-01-15T16:31:02.514Z,65.56
2024-01-15T16:34:11.889Z,65.27
2024-01-15T16:37:18.344Z,65.38
2024-01-15T16:40:23.968Z,65.46
2024-01-15T16:43:27.474Z,65.21
2024-01-15T16:46:29.835Z,65.51
2024-01-15T16:49:32.248Z,65.54
2024-01-15T16:52:34.627Z,65.59
2024-01-15T16:55:36.965Z,65.50
2024-01-15T16:58:40.364Z,65.00
2024-01-15T17:01:42.950Z,64.94
2024-01-15T17:04:45.477Z,65.29
2024-01-15T17:07:47.753Z,65.25
2024-01-15T17:10:50.166Z,65.77
2024-01-15T17:13:52.556Z,65.13
2024-01-15T17:16:56.588Z,65.08
2024-01-15T17:19:59.571Z,65.71
2024-01-15T17:23:01.941Z,65.73
2024-01-15T17:26:04.997Z,65.80
2024-01-15T17:29:07.378Z,65.59
2024-01-15T17:32:12.450Z,65.92
2024-01-15T17:35:14.833Z,66.54
2024-01-15T17:38:17.262Z,66.13
2024-01-15T17:41:21.185Z,65.95
2024-01-15T17:44:25.973Z,66.53
2024-01-15T17:47:28.506Z,66.34
2024-01-15T17:50:31.253Z,67.14
2024-01-15T17:53:34.035Z,66.93
2024-01-15T17:56:36.962Z,66.96
2024-01-15T17:59:39.795Z,67.34
2024-01-15T18:02:42.318Z,67.09
2024-01-15T18:05:44.976Z,66.99
2024-01-15T18:08:47.349Z,67.16
2024-01-15T18:11:50.209Z,67.70
2024-01-15T18:14:52.615Z,67.92
2024-01-15T18:17:55.178Z,67.49
2024-01-15T18:20:57.918Z,68.23
2024-01-15T18:24:00.305Z,67.81
2024-01-15T18:27:04.705Z,68.18
2024-01-15T18:30:10.414Z,68.36
2024-01-15T18:33:14.243Z,68.34
2024-01-15T18:36:16.773Z,68.02
2024-01-15T18:39:19.177Z,68.59
2024-01-15T18:42:21.634Z,68.86
2024-01-15T18:45:23.954Z,69.47
2024-01-15T18:48:28.575Z,69.04
2024-01-15T18:51:31.321Z,69.85
2024-01-15T18:54:33.587Z,70.08
2024-01-15T18:57:35.947Z,70.07
2024-01-15T19:00:38.368Z,70.36
2024-01-15T19:03:41.805Z,70.36
2024-01-15T19:06:46.021Z,70.42
2024-01-15T19:09:50.256Z,70.30
2024-01-15T19:12:52.595Z,69.86
2024-01-15T19:15:57.143Z,70.23
2024-01-15T19:18:59.667Z,70.83
2024-01-15T19:22:02.079Z,70.54
2024-01-15T19:25:04.627Z,70.90
2024-01-15T19:28:08.429Z,70.56
2024-01-15T19:31:14.151Z,71.90
2024-01-15T19:34:16.650Z,72.23
2024-01-15T19:37:19.093Z,71.89
2024-01-15T19:40:21.448Z,72.32
2024-01-15T19:43:23.742Z,71.81
2024-01-15T19:46:26.417Z,71.52
2024-01-15T19:52:32.411Z,71.74
2024-01-15T19:55:34.845Z,72.06
2024-01-15T19:58:38.472Z,73.18
2024-01-15T20:01:41.043Z,73.04
2024-01-15T20:04:47.728Z,73.43
2024-01-15T20:07:50.117Z,72.87
2024-01-15T20:10:54.339Z,72.35
2024-01-15T20:13:56.695Z,72.99
2024-01-15T20:17:05.372Z,72.19
2024-01-15T20:20:12.121Z,72.56
2024-01-15T20:23:14.727Z,73.05
2024-01-15T20:26:17.132Z,73.86
2024-01-15T20:29:20.083Z,74.12
2024-01-15T20:32:22.601Z,74.67
2024-01-15T20:35:25.032Z,74.63
2024-01-15T20:38:27.887Z,74.07
2024-01-15T20:41:30.383Z,72.18
2024-01-15T20:44:32.779Z,72.85
2024-01-15T20:47:35.294Z,73.46
2024-01-15T20:50:37.702Z,72.80
2024-01-15T20:53:42.653Z,72.00
2024-01-15T20:56:45.805Z,72.08
2024-01-15T20:59:51.792Z,71.75
2024-01-15T21:02:55.560Z,71.51
2024-01-15T21:05:59.283Z,72.44
2024-01-15T21:09:01.929Z,73.36
2024-01-15T21:12:05.228Z,73.19
2024-01-15T21:15:09.430Z,73.01
2024-01-15T21:18:12.209Z,73.41
2024-01-15T21:21:17.554Z,72.80
2024-01-15T21:24:23.699Z,72.64
2024-01-15T21:27:25.977Z,72.82
2024-01-15T21:30:28.242Z,73.16
2024-01-15T21:33:33.529Z,73.08
2024-01-15T21:36:38.729Z,71.98
2024-01-15T21:39:44.122Z,72.64
2024-01-15T21:42:49.230Z,72.91
2024-01-15T21:45:51.658Z,73.27
2024-01-15T21:48:55.477Z,73.80
2024-01-15T21:51:57.960Z,73.79
2024-01-15T21:55:00.297Z,74.45
2024-01-15T21:58:04.033Z,74.71
2024-01-15T22:01:08.351Z,75.11
2024-01-15T22:04:12.287Z,75.78
2024-01-15T22:07:15.269Z,75.95
2024-01-15T22:10:17.675Z,75.09
2024-01-15T22:13:21.056Z,74.81
2024-01-15T22:16:23.324Z,73.98
2024-01-15T22:19:25.953Z,74.13
2024-01-15T22:22:29.581Z,75.81
2024-01-15T22:25:33.238Z,75.90
2024-01-15T22:28:35.608Z,76.58
2024-01-15T22:31:37.971Z,75.69
2024-01-15T22:34:40.414Z,76.05
2024-01-15T22:37:42.825Z,76.52
2024-01-15T22:40:45.186Z,76.80
2024-01-15T22:43:47.561Z,77.28
2024-01-15T22:46:49.992Z,77.16
2024-01-15T22:49:52.953Z,76.25
2024-01-15T22:52:55.282Z,76.35
2024-01-15T22:55:57.665Z,75.77
2024-01-15T22:59:00.336Z,75.09
